createdAt,value
2023-10-12T00:00:49.577Z,16.60
2023-10-12T00:03:33.520Z,16.60
2023-10-12T00:06:01.628Z,16.60
2023-10-12T00:08:32.401Z,16.60
2023-10-12T00:11:07.914Z,16.60
2023-10-12T00:13:42.412Z,16.60
2023-10-12T00:16:11.082Z,16.60
2023-10-12T00:18:39.896Z,16.70
2023-10-12T00:21:16.445Z,16.70
2023-10-12T00:23:45.467Z,16.60
2023-10-12T00:26:14.694Z,16.60
2023-10-12T00:28:46.152Z,16.70
2023-10-12T00:31:19.864Z,16.70
2023-10-12T00:33:50.894Z,16.70
2023-10-12T00:36:25.978Z,16.70
2023-10-12T00:38:57.850Z,16.70
2023-10-12T00:41:26.555Z,16.70
2023-10-12T00:44:10.081Z,16.70
2023-10-12T00:46:58.060Z,16.70
2023-10-12T00:49:31.269Z,16.70
2023-10-12T00:52:10.288Z,16.70
2023-10-12T00:54:38.461Z,16.70
2023-10-12T00:57:07.105Z,16.70
2023-10-12T00:59:35.715Z,16.70
2023-10-12T01:02:09.708Z,16.70
2023-10-12T01:04:38.594Z,16.70
2023-10-12T01:07:12.404Z,16.70
2023-10-12T01:09:40.769Z,16.70
2023-10-12T01:12:15.836Z,16.70
2023-10-12T01:14:45.298Z,16.70
2023-10-12T01:17:25.917Z,16.70
2023-10-12T01:19:53.870Z,16.70
2023-10-12T01:22:28.428Z,16.70
2023-10-12T01:24:56.324Z,16.70
2023-10-12T01:27:26.486Z,16.80
2023-10-12T01:29:55.631Z,16.80
2023-10-12T01:32:28.619Z,16.80
2023-10-12T01:35:05.242Z,16.80
2023-10-12T01:37:44.393Z,16.80
2023-10-12T01:40:16.838Z,16.80
2023-10-12T01:42:47.731Z,16.80
2023-10-12T01:45:25.705Z,16.80
2023-10-12T01:48:07.002Z,16.80
2023-10-12T01:50:38.864Z,16.80
2023-10-12T01:53:20.984Z,16.80
2023-10-12T01:55:53.829Z,16.80
2023-10-12T01:58:29.308Z,16.80
2023-10-12T02:01:06.032Z,16.80
2023-10-12T02:03:44.268Z,16.80
2023-10-12T02:06:16.041Z,16.90
2023-10-12T02:08:50.897Z,16.90
2023-10-12T02:11:18.811Z,16.90
2023-10-12T02:13:48.752Z,16.90
2023-10-12T02:16:26.801Z,16.90
2023-10-12T02:19:00.088Z,16.90
2023-10-12T02:21:28.221Z,16.90
2023-10-12T02:23:59.136Z,16.90
2023-10-12T02:26:49.988Z,16.90
2023-10-12T02:30:08.574Z,16.90
2023-10-12T02:33:09.004Z,16.90
2023-10-12T02:35:50.602Z,17.00
2023-10-12T02:38:33.080Z,17.00
2023-10-12T02:41:07.350Z,17.30
2023-10-12T02:43:38.900Z,17.00
2023-10-12T02:46:23.485Z,17.00
2023-10-12T02:49:03.334Z,17.00
2023-10-12T02:51:46.661Z,17.00
2023-10-12T02:54:27.427Z,17.00
2023-10-12T02:57:09.248Z,17.00
2023-10-12T02:59:50.956Z,17.00
2023-10-12T03:02:22.783Z,17.00
2023-10-12T03:04:51.499Z,17.00
2023-10-12T03:07:24.396Z,17.00
2023-10-12T03:09:59.390Z,17.00
2023-10-12T03:12:34.365Z,17.10
2023-10-12T03:15:13.968Z,17.10
2023-10-12T03:17:46.475Z,17.10
2023-10-12T03:20:21.263Z,17.00
2023-10-12T03:23:00.507Z,17.10
2023-10-12T03:25:44.546Z,17.10
2023-10-12T03:28:14.542Z,17.00
2023-10-12T03:30:47.963Z,17.00
2023-10-12T03:33:16.798Z,17.00
2023-10-12T03:35:59.056Z,17.00
2023-10-12T03:38:33.467Z,17.10
2023-10-12T03:41:39.844Z,17.10
2023-10-12T03:44:18.679Z,17.10
2023-10-12T03:46:59.786Z,17.10
2023-10-12T03:49:28.345Z,17.10
2023-10-12T03:51:59.289Z,17.10
2023-10-12T03:54:33.010Z,17.10
2023-10-12T03:57:19.923Z,17.10
2023-10-12T04:00:13.898Z,17.10
2023-10-12T04:02:52.239Z,17.10
2023-10-12T04:05:42.298Z,17.10
2023-10-12T04:08:10.124Z,17.10
2023-10-12T04:10:47.265Z,17.10
2023-10-12T04:13:27.796Z,17.10
2023-10-12T04:16:06.727Z,17.30
2023-10-12T04:18:50.906Z,17.10
2023-10-12T04:21:24.285Z,17.10
2023-10-12T04:24:10.096Z,17.20
2023-10-12T04:26:38.616Z,17.20
2023-10-12T04:29:13.504Z,17.20
2023-10-12T04:32:04.599Z,17.20
2023-10-12T04:34:36.557Z,17.20
2023-10-12T04:37:12.744Z,17.20
2023-10-12T04:39:50.220Z,17.10
2023-10-12T04:42:35.198Z,17.00
2023-10-12T04:45:23.374Z,17.00
2023-10-12T04:47:58.134Z,16.90
2023-10-12T04:50:28.858Z,16.90
2023-10-12T04:53:10.039Z,16.80
2023-10-12T04:55:37.924Z,16.70
2023-10-12T04:58:31.801Z,16.60
2023-10-12T05:01:16.841Z,16.50
2023-10-12T05:04:07.468Z,16.50
2023-10-12T05:06:38.280Z,16.40
2023-10-12T05:09:12.407Z,16.30
2023-10-12T05:11:40.753Z,16.30
2023-10-12T05:14:15.760Z,16.30
2023-10-12T05:16:46.862Z,16.20
2023-10-12T05:19:15.467Z,16.20
2023-10-12T05:21:45.202Z,16.10
2023-10-12T05:24:13.613Z,16.10
2023-10-12T05:26:41.402Z,16.10
2023-10-12T05:29:35.587Z,16.00
2023-10-12T05:32:15.230Z,16.00
2023-10-12T05:34:43.415Z,16.10
2023-10-12T05:37:17.546Z,16.10
2023-10-12T05:39:48.759Z,16.10
2023-10-12T05:42:17.808Z,16.10
2023-10-12T05:45:16.046Z,16.10
2023-10-12T05:47:45.511Z,16.10
2023-10-12T05:50:16.746Z,16.00
2023-10-12T05:52:45.084Z,16.00
2023-10-12T05:55:22.592Z,16.00
2023-10-12T05:57:50.864Z,16.00
2023-10-12T06:00:37.564Z,16.00
2023-10-12T06:03:06.480Z,15.90
2023-10-12T06:05:35.593Z,15.90
2023-10-12T06:08:07.534Z,16.00
2023-10-12T06:10:38.829Z,16.00
2023-10-12T06:13:07.010Z,15.90
2023-10-12T06:15:41.389Z,15.90
2023-10-12T06:18:22.652Z,15.80
2023-10-12T06:20:59.399Z,15.80
2023-10-12T06:23:27.506Z,15.80
2023-10-12T06:26:07.165Z,15.80
2023-10-12T06:28:36.000Z,15.80
2023-10-12T06:31:06.993Z,15.90
2023-10-12T06:33:35.709Z,15.90
2023-10-12T06:36:05.090Z,15.80
2023-10-12T06:39:03.678Z,15.90
2023-10-12T06:41:34.621Z,15.90
2023-10-12T06:44:14.111Z,15.90
2023-10-12T06:46:47.600Z,15.90
2023-10-12T06:49:24.840Z,15.90
2023-10-12T06:52:03.060Z,15.80
2023-10-12T06:54:41.254Z,15.80
2023-10-12T06:57:27.943Z,15.70
2023-10-12T07:00:04.190Z,15.70
2023-10-12T07:02:35.344Z,15.70
2023-10-12T07:05:06.265Z,15.70
2023-10-12T07:07:44.382Z,15.60
2023-10-12T07:10:12.605Z,15.70
2023-10-12T07:12:49.310Z,15.70
2023-10-12T07:15:24.419Z,15.70
2023-10-12T07:17:56.033Z,15.70
2023-10-12T07:20:34.622Z,15.60
2023-10-12T07:23:11.823Z,15.60
2023-10-12T07:25:39.788Z,15.60
2023-10-12T07:28:17.209Z,15.50
2023-10-12T07:30:45.518Z,15.50
2023-10-12T07:33:13.733Z,15.50
2023-10-12T07:35:43.622Z,15.60
2023-10-12T07:38:34.616Z,15.60
2023-10-12T07:41:04.975Z,15.60
2023-10-12T07:43:33.736Z,15.60
2023-10-12T07:46:17.397Z,15.60
2023-10-12T07:48:46.445Z,15.60
2023-10-12T07:51:30.413Z,15.70
2023-10-12T07:54:00.638Z,15.70
2023-10-12T07:56:35.637Z,15.70
2023-10-12T07:59:15.252Z,15.70
2023-10-12T08:01:51.699Z,15.70
2023-10-12T08:04:33.589Z,15.70
2023-10-12T08:07:08.337Z,15.70
2023-10-12T08:09:48.867Z,15.80
2023-10-12T08:12:26.473Z,15.80
2023-10-12T08:15:16.463Z,15.80
2023-10-12T08:17:47.260Z,15.80
2023-10-12T08:20:34.413Z,15.80
2023-10-12T08:23:03.769Z,15.80
2023-10-12T08:25:39.797Z,15.80
2023-10-12T08:28:07.901Z,15.80
2023-10-12T08:31:01.744Z,15.90
2023-10-12T08:33:48.555Z,15.90
2023-10-12T08:36:17.161Z,15.90
2023-10-12T08:38:55.265Z,16.00
2023-10-12T08:41:27.551Z,16.00
2023-10-12T08:44:00.719Z,16.00
2023-10-12T08:46:58.966Z,16.00
2023-10-12T08:49:35.405Z,16.00
2023-10-12T08:52:09.402Z,16.00
2023-10-12T08:54:38.892Z,16.10
2023-10-12T08:57:21.420Z,16.00
2023-10-12T09:00:20.642Z,16.10
2023-10-12T09:02:54.155Z,16.10
2023-10-12T09:05:25.643Z,16.10
2023-10-12T09:08:20.303Z,16.10
2023-10-12T09:11:06.868Z,16.00
2023-10-12T09:13:36.679Z,16.10
2023-10-12T09:16:11.300Z,16.10
2023-10-12T09:18:48.441Z,16.10
2023-10-12T09:21:24.756Z,16.10
2023-10-12T09:24:09.705Z,16.10
2023-10-12T09:26:38.845Z,16.10
2023-10-12T09:29:07.957Z,16.10
2023-10-12T09:31:40.980Z,16.10
2023-10-12T09:34:11.574Z,16.10
2023-10-12T09:37:07.606Z,16.10
2023-10-12T09:39:55.848Z,16.20
2023-10-12T09:42:29.227Z,16.20
2023-10-12T09:45:18.269Z,16.20
2023-10-12T09:48:20.276Z,16.30
2023-10-12T09:50:52.789Z,16.30
2023-10-12T09:53:27.992Z,16.30
2023-10-12T09:56:12.537Z,16.30
2023-10-12T09:58:52.227Z,16.40
2023-10-12T10:01:45.025Z,16.40
2023-10-12T10:04:27.623Z,16.50
2023-10-12T10:07:18.967Z,16.50
2023-10-12T10:09:51.351Z,16.60
2023-10-12T10:12:22.263Z,16.60
2023-10-12T10:14:55.392Z,16.70
2023-10-12T10:17:25.964Z,16.70
2023-10-12T10:20:40.474Z,16.70
2023-10-12T10:23:15.552Z,16.70
2023-10-12T10:25:52.668Z,16.70
2023-10-12T10:28:28.839Z,16.70
2023-10-12T10:31:01.303Z,16.70
2023-10-12T10:33:30.763Z,16.70
2023-10-12T10:36:14.692Z,16.70
2023-10-12T10:38:54.384Z,16.70
2023-10-12T10:41:40.163Z,16.70
2023-10-12T10:44:18.244Z,16.70
2023-10-12T10:46:56.534Z,16.70
2023-10-12T10:52:23.342Z,16.70
2023-10-12T10:55:25.966Z,16.70
2023-10-12T10:57:58.405Z,16.70
2023-10-12T11:00:35.529Z,16.70
2023-10-12T11:03:06.866Z,16.70
2023-10-12T11:05:40.906Z,16.80
2023-10-12T11:08:23.645Z,16.80
2023-10-12T11:11:12.165Z,16.90
2023-10-12T11:13:42.962Z,16.90
2023-10-12T11:16:45.600Z,16.90
2023-10-12T11:19:15.172Z,16.90
2023-10-12T11:21:47.699Z,16.90
2023-10-12T11:25:31.916Z,16.90
2023-10-12T11:28:00.432Z,16.90
2023-10-12T11:31:03.971Z,16.90
2023-10-12T11:33:33.547Z,16.90
2023-10-12T11:36:05.211Z,16.90
2023-10-12T11:38:33.739Z,16.90
2023-10-12T11:41:17.857Z,16.90
2023-10-12T11:43:54.322Z,16.90
2023-10-12T11:46:27.199Z,16.90
2023-10-12T11:49:10.155Z,16.90
2023-10-12T11:51:43.396Z,16.90
2023-10-12T12:03:55.172Z,17.10
2023-10-12T12:06:27.740Z,17.20
2023-10-12T12:09:02.337Z,17.30
2023-10-12T12:11:32.969Z,17.30
2023-10-12T12:14:03.367Z,17.40
2023-10-12T12:16:32.135Z,17.40
2023-10-12T12:19:00.997Z,17.50
2023-10-12T12:25:39.838Z,17.50
2023-10-12T12:28:16.025Z,17.60
2023-10-12T12:33:20.802Z,17.60
2023-10-12T12:35:49.876Z,17.60
2023-10-12T12:38:34.921Z,17.60
2023-10-12T12:41:07.163Z,17.60
2023-10-12T12:43:35.976Z,17.50
2023-10-12T12:46:06.578Z,17.50
2023-10-12T12:48:35.370Z,17.50
2023-10-12T12:51:04.604Z,17.50
2023-10-12T12:53:35.770Z,17.50
2023-10-12T12:56:04.266Z,17.40
2023-10-12T12:58:34.008Z,17.40
2023-10-12T13:01:02.518Z,17.40
2023-10-12T13:03:33.814Z,17.40
2023-10-12T13:06:08.654Z,17.30
2023-10-12T13:08:38.046Z,17.30
2023-10-12T13:11:06.783Z,17.30
2023-10-12T13:13:35.661Z,17.40
2023-10-12T13:16:07.207Z,17.40
2023-10-12T13:18:39.840Z,17.40
2023-10-12T13:21:08.134Z,17.40
2023-10-12T13:23:36.810Z,17.40
2023-10-12T13:26:14.249Z,17.40
2023-10-12T13:28:45.755Z,17.50
2023-10-12T13:33:32.416Z,17.50
2023-10-12T13:36:00.903Z,17.60
2023-10-12T13:38:32.877Z,17.60
2023-10-12T13:41:02.848Z,17.60
2023-10-12T13:43:36.270Z,17.70
2023-10-12T13:46:13.811Z,17.70
2023-10-12T13:48:42.748Z,17.70
2023-10-12T13:51:24.412Z,17.80
2023-10-12T13:53:53.323Z,17.80
2023-10-12T13:56:25.476Z,17.80
2023-10-12T13:58:53.710Z,17.80
2023-10-12T14:01:24.884Z,17.80
2023-10-12T14:03:58.922Z,17.70
2023-10-12T14:06:31.383Z,17.70
2023-10-12T14:09:00.235Z,17.60
2023-10-12T14:11:28.577Z,17.60
2023-10-12T14:13:56.468Z,17.60
2023-10-12T14:16:24.723Z,17.60
2023-10-12T14:18:52.831Z,17.60
2023-10-12T14:21:21.102Z,17.50
2023-10-12T14:23:50.363Z,17.50
2023-10-12T14:26:20.118Z,17.50
2023-10-12T14:28:52.406Z,17.40
2023-10-12T14:31:22.635Z,17.40
2023-10-12T14:33:53.720Z,17.40
2023-10-12T14:36:25.304Z,17.40
2023-10-12T14:38:56.214Z,17.40
2023-10-12T14:41:26.224Z,17.40
2023-10-12T14:43:54.843Z,17.30
2023-10-12T14:46:23.308Z,17.30
2023-10-12T14:48:53.325Z,17.30
2023-10-12T14:51:26.023Z,17.30
2023-10-12T14:53:54.120Z,17.20
2023-10-12T14:56:24.537Z,17.20
2023-10-12T14:58:52.596Z,17.20
2023-10-12T15:01:23.149Z,17.20
2023-10-12T15:03:51.450Z,17.20
2023-10-12T15:06:21.705Z,17.20
2023-10-12T15:08:50.132Z,17.20
2023-10-12T15:11:21.167Z,17.10
2023-10-12T15:13:50.764Z,17.10
2023-10-12T15:16:20.109Z,17.10
2023-10-12T15:21:28.801Z,17.00
2023-10-12T15:23:59.848Z,17.00
2023-10-12T15:26:28.181Z,17.00
2023-10-12T15:28:56.886Z,17.00
2023-10-12T15:31:28.263Z,17.00
2023-10-12T15:33:57.748Z,17.00
2023-10-12T15:38:48.355Z,17.10
2023-10-12T15:41:16.622Z,17.00
2023-10-12T15:43:44.388Z,17.00
2023-10-12T15:46:12.949Z,17.00
2023-10-12T15:48:42.150Z,17.00
2023-10-12T15:51:21.702Z,17.00
2023-10-12T15:53:51.698Z,17.00
2023-10-12T15:56:20.287Z,17.00
2023-10-12T15:58:52.059Z,17.00
2023-10-12T16:01:21.390Z,17.00
2023-10-12T16:03:49.687Z,17.00
2023-10-12T16:06:18.109Z,17.00
2023-10-12T16:08:49.954Z,17.10
2023-10-12T16:11:18.281Z,17.00
2023-10-12T16:13:47.462Z,17.00
2023-10-12T16:16:19.630Z,17.00
2023-10-12T16:18:47.971Z,17.00
2023-10-12T16:21:17.953Z,17.00
2023-10-12T16:23:47.435Z,17.00
2023-10-12T16:26:16.657Z,17.00
2023-10-12T16:28:44.751Z,16.90
2023-10-12T16:31:13.430Z,16.90
2023-10-12T16:33:41.744Z,16.90
2023-10-12T16:36:12.704Z,16.90
2023-10-12T16:38:41.788Z,16.90
2023-10-12T16:41:10.307Z,16.90
2023-10-12T16:43:39.318Z,16.90
2023-10-12T16:46:08.556Z,16.90
2023-10-12T16:48:39.940Z,16.90
2023-10-12T16:51:08.897Z,16.90
2023-10-12T16:53:40.196Z,16.90
2023-10-12T16:56:11.555Z,16.90
2023-10-12T16:58:43.128Z,16.90
2023-10-12T17:01:15.112Z,16.90
2023-10-12T17:03:43.551Z,16.90
2023-10-12T17:06:16.931Z,16.90
2023-10-12T17:08:45.161Z,17.00
2023-10-12T17:11:13.385Z,16.90
2023-10-12T17:13:41.201Z,16.90
2023-10-12T17:16:09.754Z,16.90
2023-10-12T17:18:38.434Z,16.90
2023-10-12T17:21:07.617Z,16.90
2023-10-12T17:23:37.569Z,16.90
2023-10-12T17:26:05.789Z,16.90
2023-10-12T17:28:34.951Z,16.90
2023-10-12T17:31:07.935Z,16.90
2023-10-12T17:33:40.035Z,16.90
2023-10-12T17:36:18.339Z,16.90
2023-10-12T17:38:48.781Z,16.90
2023-10-12T17:41:22.856Z,16.90
2023-10-12T17:43:52.793Z,16.90
2023-10-12T17:46:22.133Z,16.90
2023-10-12T17:48:54.565Z,16.90
2023-10-12T17:51:23.998Z,16.90
2023-10-12T17:53:52.096Z,16.90
2023-10-12T17:56:22.603Z,16.90
2023-10-12T17:58:50.525Z,16.90
2023-10-12T18:01:21.751Z,16.90
2023-10-12T18:03:50.507Z,16.90
2023-10-12T18:06:21.358Z,16.90
2023-10-12T18:08:50.325Z,16.90
2023-10-12T18:11:18.727Z,16.90
2023-10-12T18:13:49.118Z,16.90
2023-10-12T18:16:17.896Z,16.90
2023-10-12T18:18:45.913Z,16.90
2023-10-12T18:21:14.484Z,16.90
2023-10-12T18:23:42.584Z,16.90
2023-10-12T18:26:17.016Z,16.90
2023-10-12T18:28:44.931Z,17.00
2023-10-12T18:31:16.988Z,17.00
2023-10-12T18:33:45.432Z,17.00
2023-10-12T18:36:13.626Z,17.00
2023-10-12T18:38:44.476Z,17.00
2023-10-12T18:41:17.964Z,17.00
2023-10-12T18:43:49.880Z,17.00
2023-10-12T18:46:21.808Z,17.00
2023-10-12T18:48:51.554Z,17.10
2023-10-12T18:51:22.201Z,17.10
2023-10-12T18:53:51.689Z,17.10
2023-10-12T18:56:21.642Z,17.00
2023-10-12T18:58:51.003Z,17.10
2023-10-12T19:01:20.066Z,17.10
2023-10-12T19:03:48.265Z,17.10
2023-10-12T19:06:16.418Z,17.10
2023-10-12T19:08:47.474Z,17.10
2023-10-12T19:11:17.997Z,17.10
2023-10-12T19:13:47.703Z,17.10
2023-10-12T19:16:19.886Z,17.10
2023-10-12T19:18:49.127Z,17.10
2023-10-12T19:21:17.401Z,17.10
2023-10-12T19:23:45.852Z,17.10
2023-10-12T19:26:15.622Z,17.10
2023-10-12T19:28:45.293Z,17.10
2023-10-12T19:31:15.037Z,17.10
2023-10-12T19:33:43.434Z,17.00
2023-10-12T19:36:13.377Z,17.00
2023-10-12T19:38:41.511Z,17.00
2023-10-12T19:41:10.817Z,17.00
2023-10-12T19:43:39.093Z,17.00
2023-10-12T19:46:11.916Z,16.90
2023-10-12T19:48:40.985Z,17.00
2023-10-12T19:51:14.281Z,16.90
2023-10-12T19:53:48.018Z,16.90
2023-10-12T19:56:18.621Z,16.90
2023-10-12T19:58:50.068Z,16.90
2023-10-12T20:01:22.953Z,16.90
2023-10-12T20:03:52.111Z,16.90
2023-10-12T20:06:21.604Z,16.90
2023-10-12T20:08:50.218Z,16.90
2023-10-12T20:11:21.191Z,16.90
2023-10-12T20:13:50.211Z,16.90
2023-10-12T20:16:25.782Z,16.90
2023-10-12T20:18:54.072Z,16.90
2023-10-12T20:21:22.235Z,17.00
2023-10-12T20:23:50.523Z,16.90
2023-10-12T20:26:19.208Z,17.00
2023-10-12T20:28:47.128Z,17.00
2023-10-12T20:31:15.513Z,17.00
2023-10-12T20:33:47.132Z,17.00
2023-10-12T20:36:15.422Z,17.00
2023-10-12T20:38:43.224Z,17.00
2023-10-12T20:41:11.838Z,17.00
2023-10-12T20:43:39.783Z,17.00
2023-10-12T20:46:11.616Z,17.00
2023-10-12T20:48:41.096Z,17.00
2023-10-12T20:51:12.697Z,17.00
2023-10-12T20:53:40.826Z,17.00
2023-10-12T20:56:20.517Z,17.00
2023-10-12T20:58:48.346Z,16.90
2023-10-12T21:01:23.244Z,16.90
2023-10-12T21:03:54.757Z,16.90
2023-10-12T21:06:28.560Z,16.90
2023-10-12T21:08:58.467Z,16.90
2023-10-12T21:11:26.929Z,16.90
2023-10-12T21:13:58.156Z,16.90
2023-10-12T21:16:28.212Z,16.90
2023-10-12T21:19:06.827Z,16.90
2023-10-12T21:21:35.009Z,16.90
2023-10-12T21:24:18.000Z,16.90
2023-10-12T21:29:00.914Z,16.90
2023-10-12T21:31:31.059Z,16.80
2023-10-12T21:34:01.115Z,16.80
2023-10-12T21:36:39.802Z,16.80
2023-10-12T21:39:12.518Z,16.80
2023-10-12T21:41:40.921Z,16.80
2023-10-12T21:44:10.860Z,16.70
2023-10-12T21:46:41.562Z,16.70
2023-10-12T21:49:10.566Z,16.70
2023-10-12T21:51:39.044Z,16.70
2023-10-12T21:54:07.735Z,16.70
2023-10-12T21:56:37.170Z,16.70
2023-10-12T21:59:09.992Z,16.70
2023-10-12T22:02:03.986Z,16.70
2023-10-12T22:04:36.785Z,16.70
2023-10-12T22:07:07.847Z,16.70
2023-10-12T22:09:58.718Z,16.70
2023-10-12T22:12:30.928Z,16.60
2023-10-12T22:15:02.458Z,16.70
2023-10-12T22:17:31.757Z,16.70
2023-10-12T22:19:59.831Z,16.70
2023-10-12T22:22:28.818Z,16.60
2023-10-12T22:24:57.255Z,16.60
2023-10-12T22:27:31.556Z,16.60
2023-10-12T22:30:04.993Z,16.60
2023-10-12T22:32:34.080Z,16.60
2023-10-12T22:35:02.483Z,16.60
2023-10-12T22:37:31.822Z,16.60
2023-10-12T22:40:00.012Z,16.60
2023-10-12T22:42:27.958Z,16.60
2023-10-12T22:44:58.527Z,16.60
2023-10-12T22:47:28.706Z,16.60
2023-10-12T22:49:56.856Z,16.60
2023-10-12T22:52:24.703Z,16.60
2023-10-12T22:54:52.785Z,16.50
2023-10-12T22:57:20.573Z,16.60
2023-10-12T22:59:48.690Z,16.50
2023-10-12T23:02:16.548Z,16.60
2023-10-12T23:04:45.073Z,16.50
2023-10-12T23:07:14.124Z,16.60
2023-10-12T23:09:43.275Z,16.60
2023-10-12T23:12:20.109Z,16.50
2023-10-12T23:14:50.899Z,16.60
2023-10-12T23:17:21.896Z,16.60
2023-10-12T23:19:49.940Z,16.50
2023-10-12T23:22:28.929Z,16.50
2023-10-12T23:25:07.139Z,16.50
2023-10-12T23:27:35.309Z,16.60
2023-10-12T23:30:18.832Z,16.50
2023-10-12T23:32:57.268Z,16.50
2023-10-12T23:35:37.684Z,16.50
2023-10-12T23:38:37.705Z,16.50
2023-10-12T23:41:15.881Z,16.50
2023-10-12T23:43:54.218Z,16.50
2023-10-12T23:46:24.782Z,16.50
2023-10-12T23:48:58.048Z,16.50
2023-10-12T23:51:30.857Z,16.50
2023-10-12T23:54:18.857Z,16.50
2023-10-12T23:56:52.242Z,16.50
2023-10-12T23:59:23.292Z,16.50
